Cotes De Bretagne — FW3973 — position and weather

sailwx.info

Track history (hours):
 
Tides and Currents Weather Stations Pressure Air Temp Water Temp Dewpoint Dewpoint Depression Visibility Wind Speed Wind Dir Waves Ship Positions

Cotes De Bretagne

Last reported at 2015-Apr-01 08:33 UTC. Time now 2015-Apr-01 09:28 UTC.
Position N 48°45' W 004°17'.

Length 75 m; draft 4.2 m.

Type: Dredging. MMSI: 227003850.

Date/timePositionNaut miles runAvg speedWind from/ knotsBaromVisibWave heightAir tempDewpointWater temp
2015-Apr-01 08:33N 48°45' W 004°17'  
2015-Mar-28 11:33N 48°45' W 004°14'1111.5
2015-Mar-28 10:33N 48°42' W 004°31'1211.5
2015-Mar-28 09:33N 48°36' W 004°46'1110.8
2015-Mar-28 08:33N 48°25' W 004°50'1111.2
2015-Mar-28 07:34N 48°15' W 004°46'1110.8
2015-Mar-28 06:33N 48°04' W 004°46'1010.2
2015-Mar-28 05:33N 47°55' W 004°37'44 8.9
2015-Mar-28 00:34N 47°40' W 003°35'9 9.2
2015-Mar-27 23:34N 47°42' W 003°22'3 3.2
2015-Mar-27 22:34N 47°45' W 003°19'0 0.0
2015-Mar-27 21:33N 47°45' W 003°19'0 0.0
2015-Mar-27 20:34N 47°45' W 003°19'1 1.5
2015-Mar-27 19:34N 47°44' W 003°21'0 0.0
2015-Mar-27 18:33N 47°44' W 003°21'0 0.0
2015-Mar-27 17:33N 47°44' W 003°21'0 0.0
2015-Mar-27 16:34N 47°44' W 003°21'0 0.0
2015-Mar-27 15:34N 47°44' W 003°21'0 0.0
2015-Mar-27 14:34N 47°44' W 003°21'0 0.0
2015-Mar-27 13:33N 47°44' W 003°21'0 0.0
2015-Mar-27 12:34N 47°44' W 003°21'6 5.8
2015-Mar-27 11:34N 47°38' W 003°21'18 8.8
2015-Mar-27 09:28N 47°23' W 003°06'77 8.6
2015-Mar-27 00:29N 46°26' W 001°51'5 5.9
2015-Mar-26 23:34N 46°22' W 001°45'0 0.1
2015-Mar-26 22:33N 46°22' W 001°45'0 0.1
2015-Mar-26 21:34N 46°22' W 001°45'5 4.9
2015-Mar-26 20:33N 46°25' W 001°50'1010.1
2015-Mar-26 19:33N 46°33' W 001°60'1111.2
2015-Mar-26 18:34N 46°41' W 002°11'5511.0
2015-Mar-26 13:32N 47°22' W 003°06'2110.7
2015-Mar-26 11:33N 47°34' W 003°32'34 2.0
2015-Mar-25 18:33N 47°58' W 004°06'6 6.2
2015-Mar-25 17:34N 47°52' W 004°07'6 1.2
2015-Mar-25 12:33N 47°48' W 004°00'44 8.8
2015-Mar-25 07:33N 47°23' W 003°07'59 8.4
2015-Mar-25 00:34N 46°39' W 002°08'9 8.8
2015-Mar-24 23:33N 46°33' W 001°59'9 8.8
2015-Mar-24 22:34N 46°26' W 001°51'6 6.0
2015-Mar-24 21:33N 46°22' W 001°44'0 0.1
2015-Mar-24 20:34N 46°22' W 001°44'0 0.4
2015-Mar-24 19:33N 46°22' W 001°45'9 8.9
2015-Mar-24 18:33N 46°29' W 001°54'1211.8
2015-Mar-24 17:31N 46°38' W 002°06'4811.4
2015-Mar-24 13:19N 47°13' W 002°53'810.9
2015-Mar-24 12:33N 47°19' W 003°02'1010.4
2015-Mar-24 11:33N 47°25' W 003°14'4310.8
2015-Mar-24 07:33N 47°51' W 004°06'7 6.7
2015-Mar-24 06:33N 47°57' W 004°06'1 0.2
2015-Mar-24 00:33N 47°58' W 004°06'5 0.7
2015-Mar-23 16:33N 47°53' W 004°07'43 8.2
2015-Mar-23 11:15N 47°26' W 003°16'710.3
2015-Mar-23 10:33N 47°23' W 003°07'1210.1
2015-Mar-23 09:24N 47°16' W 002°53'10 9.9
2015-Mar-23 08:20N 47°11' W 002°40'910.1
2015-Mar-23 07:26N 47°06' W 002°28'5 6.0
2015-Mar-23 06:32N 47°05' W 002°20'17 3.3
2015-Mar-23 01:18N 47°14' W 002°43'810.1
2015-Mar-23 00:32N 47°17' W 002°53'9 9.6
2015-Mar-22 23:33N 47°22' W 003°05'9 9.3
2015-Mar-22 22:33N 47°26' W 003°17'4110.3
2015-Mar-22 18:33N 47°51' W 004°06'7 7.5
2015-Mar-22 17:33N 47°58' W 004°06'9 2.9
2015-Mar-22 14:33N 47°49' W 004°04'4110.0
2015-Mar-22 10:26N 47°26' W 003°14'910.7
2015-Mar-22 09:33N 47°21' W 003°02'  
Track history (hours):
 
Tides and Currents Weather Stations Pressure Air Temp Water Temp Dewpoint Dewpoint Depression Visibility Wind Speed Wind Dir Waves Ship Positions

Cotes De Bretagne

Last reported at 2015-Apr-01 08:33 UTC. Time now 2015-Apr-01 09:28 UTC.
Position N 48°45' W 004°17'.

Length 75 m; draft 4.2 m.

Type: Dredging. MMSI: 227003850.

Date/timePositionNaut miles runAvg speedWind from/ knotsBaromVisibWave heightAir tempDewpointWater temp
2015-Apr-01 08:33N 48°45' W 004°17'  
2015-Mar-28 11:33N 48°45' W 004°14'1111.5
2015-Mar-28 10:33N 48°42' W 004°31'1211.5
2015-Mar-28 09:33N 48°36' W 004°46'1110.8
2015-Mar-28 08:33N 48°25' W 004°50'1111.2
2015-Mar-28 07:34N 48°15' W 004°46'1110.8
2015-Mar-28 06:33N 48°04' W 004°46'1010.2
2015-Mar-28 05:33N 47°55' W 004°37'44 8.9
2015-Mar-28 00:34N 47°40' W 003°35'9 9.2
2015-Mar-27 23:34N 47°42' W 003°22'3 3.2
2015-Mar-27 22:34N 47°45' W 003°19'0 0.0
2015-Mar-27 21:33N 47°45' W 003°19'0 0.0
2015-Mar-27 20:34N 47°45' W 003°19'1 1.5
2015-Mar-27 19:34N 47°44' W 003°21'0 0.0
2015-Mar-27 18:33N 47°44' W 003°21'0 0.0
2015-Mar-27 17:33N 47°44' W 003°21'0 0.0
2015-Mar-27 16:34N 47°44' W 003°21'0 0.0
2015-Mar-27 15:34N 47°44' W 003°21'0 0.0
2015-Mar-27 14:34N 47°44' W 003°21'0 0.0
2015-Mar-27 13:33N 47°44' W 003°21'0 0.0
2015-Mar-27 12:34N 47°44' W 003°21'6 5.8
2015-Mar-27 11:34N 47°38' W 003°21'18 8.8
2015-Mar-27 09:28N 47°23' W 003°06'77 8.6
2015-Mar-27 00:29N 46°26' W 001°51'5 5.9
2015-Mar-26 23:34N 46°22' W 001°45'0 0.1
2015-Mar-26 22:33N 46°22' W 001°45'0 0.1
2015-Mar-26 21:34N 46°22' W 001°45'5 4.9
2015-Mar-26 20:33N 46°25' W 001°50'1010.1
2015-Mar-26 19:33N 46°33' W 001°60'1111.2
2015-Mar-26 18:34N 46°41' W 002°11'5511.0
2015-Mar-26 13:32N 47°22' W 003°06'2110.7
2015-Mar-26 11:33N 47°34' W 003°32'34 2.0
2015-Mar-25 18:33N 47°58' W 004°06'6 6.2
2015-Mar-25 17:34N 47°52' W 004°07'6 1.2
2015-Mar-25 12:33N 47°48' W 004°00'44 8.8
2015-Mar-25 07:33N 47°23' W 003°07'59 8.4
2015-Mar-25 00:34N 46°39' W 002°08'9 8.8
2015-Mar-24 23:33N 46°33' W 001°59'9 8.8
2015-Mar-24 22:34N 46°26' W 001°51'6 6.0
2015-Mar-24 21:33N 46°22' W 001°44'0 0.1
2015-Mar-24 20:34N 46°22' W 001°44'0 0.4
2015-Mar-24 19:33N 46°22' W 001°45'9 8.9
2015-Mar-24 18:33N 46°29' W 001°54'1211.8
2015-Mar-24 17:31N 46°38' W 002°06'4811.4
2015-Mar-24 13:19N 47°13' W 002°53'810.9
2015-Mar-24 12:33N 47°19' W 003°02'1010.4
2015-Mar-24 11:33N 47°25' W 003°14'4310.8
2015-Mar-24 07:33N 47°51' W 004°06'7 6.7
2015-Mar-24 06:33N 47°57' W 004°06'1 0.2
2015-Mar-24 00:33N 47°58' W 004°06'5 0.7
2015-Mar-23 16:33N 47°53' W 004°07'43 8.2
2015-Mar-23 11:15N 47°26' W 003°16'710.3
2015-Mar-23 10:33N 47°23' W 003°07'1210.1
2015-Mar-23 09:24N 47°16' W 002°53'10 9.9
2015-Mar-23 08:20N 47°11' W 002°40'910.1
2015-Mar-23 07:26N 47°06' W 002°28'5 6.0
2015-Mar-23 06:32N 47°05' W 002°20'17 3.3
2015-Mar-23 01:18N 47°14' W 002°43'810.1
2015-Mar-23 00:32N 47°17' W 002°53'9 9.6
2015-Mar-22 23:33N 47°22' W 003°05'9 9.3
2015-Mar-22 22:33N 47°26' W 003°17'4110.3
2015-Mar-22 18:33N 47°51' W 004°06'7 7.5
2015-Mar-22 17:33N 47°58' W 004°06'9 2.9
2015-Mar-22 14:33N 47°49' W 004°04'4110.0
2015-Mar-22 10:26N 47°26' W 003°14'910.7
2015-Mar-22 09:33N 47°21' W 003°02'  

Dump ship's entire track history